createdAt,value
2023-04-29T00:01:58.388Z,15.47
2023-04-29T00:04:26.195Z,16.33
2023-04-29T00:06:56.170Z,17.27
2023-04-29T00:09:23.554Z,15.17
2023-04-29T00:11:51.120Z,16.10
2023-04-29T00:14:18.467Z,15.30
2023-04-29T00:16:46.268Z,16.37
2023-04-29T00:19:13.590Z,16.00
2023-04-29T00:21:44.453Z,16.20
2023-04-29T00:24:12.456Z,14.77
2023-04-29T00:26:40.554Z,14.60
2023-04-29T00:29:09.533Z,16.43
2023-04-29T00:31:42.582Z,15.93
2023-04-29T00:34:10.052Z,15.70
2023-04-29T00:36:37.337Z,16.93
2023-04-29T00:39:04.830Z,16.27
2023-04-29T00:41:33.388Z,16.30
2023-04-29T00:44:00.674Z,16.27
2023-04-29T00:46:27.991Z,15.33
2023-04-29T00:48:55.444Z,14.90
2023-04-29T00:51:22.985Z,14.90
2023-04-29T00:53:50.860Z,15.93
2023-04-29T00:56:20.265Z,15.00
2023-04-29T00:58:50.650Z,14.23
2023-04-29T01:01:18.931Z,14.20
2023-04-29T01:03:46.891Z,15.27
2023-04-29T01:06:28.464Z,14.90
2023-04-29T01:09:08.582Z,14.03
2023-04-29T01:11:42.057Z,17.87
2023-04-29T01:14:10.385Z,14.37
2023-04-29T01:16:42.623Z,14.47
2023-04-29T01:19:22.829Z,14.73
2023-04-29T01:21:50.315Z,16.33
2023-04-29T01:24:18.409Z,15.83
2023-04-29T01:26:53.877Z,15.07
2023-04-29T01:29:28.168Z,15.33
2023-04-29T01:32:04.744Z,14.67
2023-04-29T01:34:38.967Z,15.50
2023-04-29T01:37:13.899Z,15.83
2023-04-29T01:39:56.202Z,15.50
2023-04-29T01:42:29.421Z,17.53
2023-04-29T01:44:59.808Z,18.57
2023-04-29T01:47:28.957Z,20.50
2023-04-29T01:49:56.225Z,18.13
2023-04-29T01:52:23.501Z,14.10
2023-04-29T01:54:51.378Z,15.30
2023-04-29T01:57:18.742Z,16.67
2023-04-29T01:59:45.962Z,15.07
2023-04-29T02:02:14.574Z,13.60
2023-04-29T02:04:42.258Z,13.17
2023-04-29T02:07:09.600Z,12.93
2023-04-29T02:09:36.878Z,11.93
2023-04-29T02:12:05.428Z,11.00
2023-04-29T02:14:35.054Z,12.27
2023-04-29T02:17:04.137Z,11.27
2023-04-29T02:19:31.481Z,10.90
2023-04-29T02:21:58.751Z,12.57
2023-04-29T02:24:26.191Z,12.27
2023-04-29T02:26:53.612Z,11.50
2023-04-29T02:29:21.561Z,12.17
2023-04-29T02:31:48.888Z,12.00
2023-04-29T02:34:16.206Z,11.90
2023-04-29T02:36:43.490Z,12.40
2023-04-29T02:39:10.719Z,11.23
2023-04-29T02:41:37.935Z,12.20
2023-04-29T02:44:05.366Z,9.63
2023-04-29T02:46:35.466Z,11.73
2023-04-29T02:49:03.534Z,12.00
2023-04-29T02:51:30.868Z,10.10
2023-04-29T02:53:58.158Z,11.07
2023-04-29T02:56:25.492Z,10.53
2023-04-29T02:58:52.777Z,11.60
2023-04-29T03:01:20.879Z,11.70
2023-04-29T03:03:48.932Z,10.13
2023-04-29T03:06:16.308Z,10.63
2023-04-29T03:08:43.565Z,11.87
2023-04-29T03:11:10.904Z,11.90
2023-04-29T03:13:38.271Z,11.47
2023-04-29T03:16:06.520Z,10.90
2023-04-29T03:18:33.764Z,11.33
2023-04-29T03:21:04.043Z,9.80
2023-04-29T03:23:31.339Z,10.60
2023-04-29T03:25:58.662Z,10.53
2023-04-29T03:28:25.973Z,9.13
2023-04-29T03:30:53.563Z,11.00
2023-04-29T03:33:20.951Z,10.57
2023-04-29T03:35:48.201Z,8.80
2023-04-29T03:38:16.091Z,8.80
2023-04-29T03:40:44.739Z,8.97
2023-04-29T03:43:13.315Z,8.80
2023-04-29T03:45:40.594Z,9.50
2023-04-29T03:48:08.034Z,10.40
2023-04-29T03:50:36.210Z,9.43
2023-04-29T03:53:03.529Z,9.40
2023-04-29T03:55:31.449Z,8.77
2023-04-29T03:57:58.714Z,10.03
2023-04-29T04:00:26.078Z,8.57
2023-04-29T04:02:53.547Z,8.60
2023-04-29T04:05:24.386Z,10.03
2023-04-29T04:07:51.774Z,8.83
2023-04-29T04:10:19.168Z,8.50
2023-04-29T04:12:47.214Z,14.07
2023-04-29T04:15:15.893Z,11.00
2023-04-29T04:17:43.165Z,10.57
2023-04-29T04:20:11.545Z,11.13
2023-04-29T04:22:38.778Z,10.27
2023-04-29T04:25:07.718Z,10.60
2023-04-29T04:27:35.267Z,9.53
2023-04-29T04:30:03.549Z,11.20
2023-04-29T04:32:30.963Z,10.80
2023-04-29T04:34:58.572Z,10.70
2023-04-29T04:37:25.892Z,11.10
2023-04-29T04:39:53.415Z,10.47
2023-04-29T04:42:22.406Z,11.20
2023-04-29T04:44:49.654Z,11.90
2023-04-29T04:47:17.916Z,13.27
2023-04-29T04:49:45.583Z,15.60
2023-04-29T04:52:12.853Z,15.33
2023-04-29T04:54:40.098Z,13.80
2023-04-29T04:57:07.453Z,15.20
2023-04-29T04:59:34.884Z,19.33
2023-04-29T05:02:02.160Z,45.27
2023-04-29T05:04:30.242Z,36.20
2023-04-29T05:06:57.593Z,43.80
2023-04-29T05:09:26.148Z,31.17
2023-04-29T05:11:53.748Z,20.40
2023-04-29T05:14:21.070Z,19.50
2023-04-29T05:16:48.457Z,24.10
2023-04-29T05:19:15.726Z,18.40
2023-04-29T05:21:43.775Z,17.73
2023-04-29T05:24:11.119Z,17.03
2023-04-29T05:26:38.712Z,19.10
2023-04-29T05:29:06.912Z,18.00
2023-04-29T05:31:34.945Z,24.33
2023-04-29T05:34:02.718Z,31.80
2023-04-29T05:36:30.022Z,30.87
2023-04-29T05:38:58.467Z,32.87
2023-04-29T05:41:26.280Z,23.80
2023-04-29T05:43:53.771Z,31.13
2023-04-29T05:46:22.403Z,19.47
2023-04-29T05:48:49.759Z,20.30
2023-04-29T05:51:17.153Z,17.53
2023-04-29T05:53:44.433Z,15.93
2023-04-29T05:56:12.428Z,17.53
2023-04-29T05:58:39.721Z,16.23
2023-04-29T06:01:07.176Z,15.03
2023-04-29T06:03:35.333Z,14.60
2023-04-29T06:06:03.087Z,15.17
2023-04-29T06:08:30.664Z,15.00
2023-04-29T06:10:58.011Z,15.40
2023-04-29T06:13:26.151Z,14.33
2023-04-29T06:15:53.387Z,14.97
2023-04-29T06:18:20.719Z,14.37
2023-04-29T06:20:47.977Z,14.47
2023-04-29T06:23:17.048Z,14.67
2023-04-29T06:25:44.287Z,12.90
2023-04-29T06:28:11.616Z,14.30
2023-04-29T06:30:39.610Z,15.60
2023-04-29T06:33:07.425Z,15.47
2023-04-29T06:35:38.681Z,14.30
2023-04-29T06:38:07.453Z,12.87
2023-04-29T06:40:34.989Z,12.33
2023-04-29T06:43:03.841Z,13.90
2023-04-29T06:45:31.406Z,14.00
2023-04-29T06:48:02.692Z,14.30
2023-04-29T06:50:30.322Z,12.70
2023-04-29T06:52:57.672Z,13.80
2023-04-29T06:55:36.202Z,15.93
2023-04-29T06:58:12.083Z,14.57
2023-04-29T07:00:39.710Z,15.07
2023-04-29T07:03:09.331Z,13.90
2023-04-29T07:05:41.547Z,15.00
2023-04-29T07:08:10.015Z,15.53
2023-04-29T07:10:37.336Z,14.10
2023-04-29T07:13:04.906Z,15.10
2023-04-29T07:15:35.639Z,13.77
2023-04-29T07:18:04.698Z,12.30
2023-04-29T07:20:34.096Z,8.93
2023-04-29T07:23:02.238Z,12.57
2023-04-29T07:25:30.510Z,12.13
2023-04-29T07:27:58.614Z,11.73
2023-04-29T07:30:49.177Z,10.20
2023-04-29T07:33:20.605Z,11.00
2023-04-29T07:35:49.946Z,10.30
2023-04-29T07:38:26.496Z,9.30
2023-04-29T07:41:00.237Z,9.63
2023-04-29T07:43:28.002Z,10.63
2023-04-29T07:46:10.211Z,10.23
2023-04-29T07:48:45.963Z,11.20
2023-04-29T07:51:33.039Z,9.03
2023-04-29T07:54:15.356Z,10.00
2023-04-29T07:57:03.494Z,9.27
2023-04-29T07:59:41.109Z,9.37
2023-04-29T08:05:01.828Z,8.27
2023-04-29T08:07:32.469Z,8.90
2023-04-29T08:10:04.579Z,8.70
2023-04-29T08:12:37.614Z,7.80
2023-04-29T08:15:09.922Z,9.30
2023-04-29T08:17:40.997Z,8.40
2023-04-29T08:20:11.562Z,8.33
2023-04-29T08:22:44.082Z,9.67
2023-04-29T08:25:11.972Z,10.17
2023-04-29T08:30:30.346Z,8.00
2023-04-29T08:33:01.575Z,9.80
2023-04-29T08:35:29.137Z,9.07
2023-04-29T08:38:13.058Z,8.80
2023-04-29T08:41:14.864Z,7.87
2023-04-29T08:43:42.371Z,8.53
2023-04-29T08:46:10.842Z,8.90
2023-04-29T08:48:45.169Z,7.23
2023-04-29T08:51:16.800Z,10.23
2023-04-29T08:53:52.911Z,8.80
2023-04-29T08:56:34.778Z,6.97
2023-04-29T09:00:04.834Z,8.20
2023-04-29T09:03:06.870Z,7.60
2023-04-29T09:05:37.098Z,7.57
2023-04-29T09:08:12.022Z,7.70
2023-04-29T09:10:44.837Z,7.80
2023-04-29T09:13:35.710Z,8.10
2023-04-29T09:19:52.696Z,8.50
2023-04-29T09:22:26.326Z,8.17
2023-04-29T09:25:29.635Z,7.97
2023-04-29T09:27:58.274Z,6.60
2023-04-29T09:30:26.095Z,7.63
2023-04-29T09:33:07.796Z,8.77
2023-04-29T09:35:36.053Z,10.00
2023-04-29T09:38:11.679Z,11.00
2023-04-29T09:40:58.380Z,11.93
2023-04-29T09:43:30.244Z,11.40
2023-04-29T09:45:57.972Z,12.07
2023-04-29T09:48:33.630Z,13.40
2023-04-29T09:51:02.896Z,9.63
2023-04-29T09:53:38.782Z,11.30
2023-04-29T09:56:06.820Z,10.10
2023-04-29T09:58:40.462Z,12.93
2023-04-29T10:01:08.588Z,12.03
2023-04-29T10:03:38.159Z,10.73
2023-04-29T10:06:07.154Z,12.70
2023-04-29T10:08:37.513Z,9.47
2023-04-29T10:11:07.486Z,11.63
2023-04-29T10:13:44.410Z,10.50
2023-04-29T10:16:36.863Z,10.80
2023-04-29T10:19:13.831Z,12.50
2023-04-29T10:22:01.444Z,9.77
2023-04-29T10:24:36.850Z,7.07
2023-04-29T10:27:56.558Z,10.17
2023-04-29T10:34:16.782Z,12.67
2023-04-29T10:37:05.647Z,10.10
2023-04-29T10:43:12.154Z,11.50
2023-04-29T10:46:06.178Z,12.70
2023-04-29T10:49:25.477Z,10.40
2023-04-29T10:52:27.817Z,9.73
2023-04-29T10:55:12.308Z,7.80
2023-04-29T10:57:51.419Z,8.80
2023-04-29T11:00:53.857Z,10.70
2023-04-29T11:04:08.714Z,7.80
2023-04-29T11:06:55.176Z,8.17
2023-04-29T11:15:40.407Z,7.57
2023-04-29T11:18:50.772Z,6.37
2023-04-29T11:22:14.132Z,6.03
2023-04-29T11:28:29.922Z,6.80
2023-04-29T11:31:14.537Z,5.47
2023-04-29T11:34:01.603Z,7.60
2023-04-29T11:40:12.638Z,5.83
2023-04-29T11:43:19.682Z,6.10
2023-04-29T11:46:32.125Z,5.53
2023-04-29T11:49:20.389Z,6.40
2023-04-29T11:52:03.053Z,6.10
2023-04-29T11:55:30.323Z,9.00
2023-04-29T11:58:31.413Z,8.80
2023-04-29T12:01:13.559Z,6.80
2023-04-29T12:11:11.755Z,9.10
2023-04-29T12:13:40.570Z,6.57
2023-04-29T12:16:08.622Z,5.50
2023-04-29T12:18:36.306Z,8.63
2023-04-29T12:21:03.828Z,5.53
2023-04-29T12:23:31.232Z,9.50
2023-04-29T12:26:00.329Z,8.60
2023-04-29T12:28:28.219Z,9.10
2023-04-29T12:30:58.273Z,8.67
2023-04-29T12:33:27.093Z,8.97
2023-04-29T12:35:56.889Z,8.20
2023-04-29T12:38:26.895Z,8.83
2023-04-29T12:40:54.728Z,8.33
2023-04-29T12:43:27.432Z,10.70
2023-04-29T12:46:00.855Z,10.57
2023-04-29T12:48:33.187Z,10.80
2023-04-29T12:51:01.921Z,10.57
2023-04-29T12:53:30.735Z,7.00
2023-04-29T12:55:58.768Z,11.43
2023-04-29T12:58:29.483Z,7.57
2023-04-29T13:00:57.986Z,12.03
2023-04-29T13:03:25.854Z,12.00
2023-04-29T13:05:54.058Z,13.23
2023-04-29T13:08:22.228Z,13.30
2023-04-29T13:10:49.498Z,10.03
2023-04-29T13:13:16.778Z,11.00
2023-04-29T13:15:44.175Z,13.03
2023-04-29T13:18:12.119Z,12.80
2023-04-29T13:20:42.043Z,12.80
2023-04-29T13:23:09.984Z,12.40
2023-04-29T13:25:37.301Z,12.10
2023-04-29T13:28:05.002Z,13.30
2023-04-29T13:30:32.586Z,12.17
2023-04-29T13:33:09.328Z,12.40
2023-04-29T13:35:40.793Z,11.67
2023-04-29T13:38:08.297Z,12.80
2023-04-29T13:40:39.384Z,14.27
2023-04-29T13:43:15.459Z,14.60
2023-04-29T13:45:48.165Z,15.57
2023-04-29T14:01:17.047Z,17.63
2023-04-29T14:03:36.041Z,12.83
2023-04-29T14:06:05.671Z,16.87
2023-04-29T14:08:32.935Z,13.97
2023-04-29T14:11:00.562Z,16.10
2023-04-29T14:13:28.631Z,18.30
2023-04-29T14:15:56.332Z,15.40
2023-04-29T14:18:23.589Z,17.07
2023-04-29T14:20:50.985Z,16.80
2023-04-29T14:23:19.003Z,17.07
2023-04-29T14:25:46.786Z,16.27
2023-04-29T14:28:14.099Z,18.47
2023-04-29T14:30:43.935Z,16.43
2023-04-29T14:33:12.796Z,16.43
2023-04-29T14:35:40.434Z,16.73
2023-04-29T14:38:07.981Z,14.97
2023-04-29T14:40:37.389Z,16.57
2023-04-29T14:43:04.730Z,14.30
2023-04-29T14:45:32.071Z,13.93
2023-04-29T14:47:59.590Z,15.47
2023-04-29T14:50:28.626Z,17.53
2023-04-29T14:52:57.159Z,16.10
2023-04-29T14:55:24.396Z,16.83
2023-04-29T14:57:52.736Z,15.33
2023-04-29T15:00:20.694Z,14.30
2023-04-29T15:02:49.962Z,17.53
2023-04-29T15:05:18.167Z,16.23
2023-04-29T15:07:45.812Z,18.63
2023-04-29T15:10:13.193Z,16.27
2023-04-29T15:12:40.768Z,18.60
2023-04-29T15:15:10.323Z,16.30
2023-04-29T15:17:37.698Z,16.67
2023-04-29T15:20:06.782Z,17.70
2023-04-29T15:22:34.162Z,19.20
2023-04-29T15:25:01.485Z,17.53
2023-04-29T15:27:28.816Z,18.30
2023-04-29T15:29:57.010Z,18.30
2023-04-29T15:32:30.616Z,17.03
2023-04-29T15:34:58.567Z,18.70
2023-04-29T15:37:27.002Z,17.13
2023-04-29T15:39:54.687Z,16.13
2023-04-29T15:42:22.234Z,18.50
2023-04-29T15:44:49.576Z,16.70
2023-04-29T15:47:16.995Z,14.87
2023-04-29T15:49:45.056Z,14.97
2023-04-29T15:52:12.360Z,17.63
2023-04-29T15:54:40.467Z,16.83
2023-04-29T15:57:07.760Z,14.03
2023-04-29T15:59:35.111Z,18.33
2023-04-29T16:02:03.030Z,20.17
2023-04-29T16:04:30.709Z,17.73
2023-04-29T16:06:58.742Z,16.97
2023-04-29T16:09:26.020Z,16.70
2023-04-29T16:11:53.267Z,18.10
2023-04-29T16:14:20.495Z,18.50
2023-04-29T16:16:47.883Z,15.63
2023-04-29T16:19:15.116Z,15.90
2023-04-29T16:21:44.909Z,15.33
2023-04-29T16:24:13.137Z,15.53
2023-04-29T16:26:40.774Z,13.67
2023-04-29T16:29:08.856Z,16.00
2023-04-29T16:31:36.229Z,15.87
2023-04-29T16:34:03.513Z,16.27
2023-04-29T16:36:31.603Z,15.50
2023-04-29T16:39:04.902Z,17.43
2023-04-29T16:41:33.099Z,16.50
2023-04-29T16:44:00.434Z,16.27
2023-04-29T16:46:27.753Z,15.47
2023-04-29T16:48:56.166Z,17.87
2023-04-29T16:51:24.945Z,14.97
2023-04-29T16:53:52.458Z,15.80
2023-04-29T16:56:20.836Z,15.63
2023-04-29T16:58:48.971Z,16.47
2023-04-29T17:01:18.747Z,16.20
2023-04-29T17:03:46.899Z,14.63
2023-04-29T17:06:14.628Z,16.13
2023-04-29T17:08:42.336Z,18.60
2023-04-29T17:11:09.737Z,15.40
2023-04-29T17:13:37.023Z,14.90
2023-04-29T17:16:06.287Z,15.80
2023-04-29T17:18:33.597Z,13.60
2023-04-29T17:21:02.072Z,14.37
2023-04-29T17:23:29.895Z,14.43
2023-04-29T17:25:57.234Z,15.10
2023-04-29T17:28:24.525Z,15.40
2023-04-29T17:30:54.942Z,15.77
2023-04-29T17:33:31.601Z,17.60
2023-04-29T17:36:00.551Z,20.00
2023-04-29T17:38:28.687Z,29.60
2023-04-29T17:40:56.043Z,20.20
2023-04-29T17:43:23.375Z,20.83
2023-04-29T17:45:50.679Z,16.40
2023-04-29T17:48:19.703Z,19.00
2023-04-29T17:50:47.765Z,14.97
2023-04-29T17:53:15.135Z,13.90
2023-04-29T17:55:44.119Z,14.00
2023-04-29T17:58:11.439Z,13.30
2023-04-29T18:00:40.975Z,16.50
2023-04-29T18:03:08.474Z,18.70
2023-04-29T18:05:35.939Z,22.30
2023-04-29T18:08:04.262Z,20.63
2023-04-29T18:10:31.587Z,18.00
2023-04-29T18:12:59.040Z,13.80
2023-04-29T18:15:26.402Z,15.00
2023-04-29T18:17:53.880Z,14.03
2023-04-29T18:20:21.804Z,18.30
2023-04-29T18:22:49.745Z,14.53
2023-04-29T18:25:17.822Z,14.43
2023-04-29T18:27:45.079Z,13.47
2023-04-29T18:30:14.109Z,13.97
2023-04-29T18:32:41.715Z,13.27
2023-04-29T18:35:09.530Z,13.80
2023-04-29T18:37:36.871Z,14.67
2023-04-29T18:40:05.391Z,14.20
2023-04-29T18:42:33.377Z,15.10
2023-04-29T18:45:00.666Z,16.23
2023-04-29T18:47:28.024Z,15.20
2023-04-29T18:49:55.498Z,15.70
2023-04-29T18:52:23.098Z,18.17
2023-04-29T18:54:50.430Z,18.70
2023-04-29T18:57:17.788Z,21.30
2023-04-29T18:59:46.375Z,19.63
2023-04-29T19:02:14.265Z,20.30
2023-04-29T19:04:41.699Z,18.97
2023-04-29T19:07:09.088Z,20.40
2023-04-29T19:09:36.482Z,17.77
2023-04-29T19:12:05.141Z,18.77
2023-04-29T19:14:33.328Z,18.87
2023-04-29T19:17:01.339Z,16.70
2023-04-29T19:19:29.493Z,14.20
2023-04-29T19:21:57.077Z,14.70
2023-04-29T19:24:24.601Z,16.20
2023-04-29T19:26:52.002Z,14.90
2023-04-29T19:29:19.483Z,15.30
2023-04-29T19:31:46.902Z,22.17
2023-04-29T19:34:15.514Z,22.53
2023-04-29T19:36:42.780Z,17.17
2023-04-29T19:39:11.027Z,14.40
2023-04-29T19:41:38.564Z,14.70
2023-04-29T19:44:06.212Z,15.87
2023-04-29T19:46:33.852Z,16.20
2023-04-29T19:49:01.587Z,15.77
2023-04-29T19:51:30.381Z,15.70
2023-04-29T19:54:00.785Z,15.67
2023-04-29T19:56:28.144Z,15.57
2023-04-29T19:58:56.208Z,17.07
2023-04-29T20:01:23.614Z,15.80
2023-04-29T20:03:50.959Z,18.53
2023-04-29T20:06:19.099Z,19.10
2023-04-29T20:08:47.320Z,19.60
2023-04-29T20:11:14.906Z,18.90
2023-04-29T20:13:42.220Z,20.70
2023-04-29T20:16:10.431Z,18.73
2023-04-29T20:18:40.032Z,18.50
2023-04-29T20:21:07.548Z,17.97
2023-04-29T20:23:34.900Z,19.97
2023-04-29T20:26:03.551Z,21.47
2023-04-29T20:28:30.871Z,18.10
2023-04-29T20:30:58.231Z,18.27
2023-04-29T20:33:25.574Z,18.37
2023-04-29T20:35:53.595Z,17.00
2023-04-29T20:38:21.925Z,17.40
2023-04-29T20:40:53.254Z,17.20
2023-04-29T20:43:21.340Z,19.00
2023-04-29T20:45:49.603Z,19.53
2023-04-29T20:48:17.021Z,18.30
2023-04-29T20:50:44.389Z,17.87
2023-04-29T20:53:11.804Z,18.70
2023-04-29T20:55:39.181Z,18.60
2023-04-29T20:58:06.544Z,17.80
2023-04-29T21:00:34.699Z,17.90
2023-04-29T21:03:02.167Z,18.30
2023-04-29T21:05:29.648Z,22.70
2023-04-29T21:07:57.997Z,20.30
2023-04-29T21:10:25.259Z,17.80
2023-04-29T21:12:52.606Z,18.50
2023-04-29T21:15:20.078Z,18.47
2023-04-29T21:17:48.248Z,17.50
2023-04-29T21:20:16.434Z,18.17
2023-04-29T21:22:44.384Z,17.87
2023-04-29T21:25:11.667Z,18.67
2023-04-29T21:27:38.992Z,17.80
2023-04-29T21:30:07.394Z,19.00
2023-04-29T21:32:35.365Z,18.00
2023-04-29T21:35:03.695Z,19.03
2023-04-29T21:37:31.134Z,17.07
2023-04-29T21:39:59.566Z,18.40
2023-04-29T21:42:27.457Z,18.20
2023-04-29T21:44:57.037Z,17.20
2023-04-29T21:47:24.515Z,17.17
2023-04-29T21:49:52.843Z,16.40
2023-04-29T21:52:21.332Z,18.03
2023-04-29T21:54:48.551Z,18.70
2023-04-29T21:57:15.868Z,18.73
2023-04-29T21:59:43.188Z,20.37
2023-04-29T22:02:21.114Z,17.67
2023-04-29T22:04:49.884Z,17.70
2023-04-29T22:07:17.559Z,16.47
2023-04-29T22:09:48.917Z,15.00
2023-04-29T22:12:17.188Z,17.10
2023-04-29T22:14:44.518Z,17.20
2023-04-29T22:17:11.973Z,16.30
2023-04-29T22:19:39.749Z,16.63
2023-04-29T22:22:07.131Z,16.10
2023-04-29T22:24:34.463Z,17.27
2023-04-29T22:27:02.852Z,16.50
2023-04-29T22:29:30.152Z,15.47
2023-04-29T22:31:57.481Z,16.47
2023-04-29T22:34:24.847Z,15.80
2023-04-29T22:36:52.095Z,15.87
2023-04-29T22:39:19.390Z,17.17
2023-04-29T22:41:46.657Z,15.63
2023-04-29T22:44:15.286Z,17.30
2023-04-29T22:46:42.557Z,16.10
2023-04-29T22:49:09.951Z,17.97
2023-04-29T22:51:37.203Z,16.60
2023-04-29T22:54:04.600Z,16.67
2023-04-29T22:56:31.928Z,16.53
2023-04-29T22:58:59.275Z,17.30
2023-04-29T23:01:27.415Z,17.00
2023-04-29T23:03:55.585Z,15.40
2023-04-29T23:06:23.234Z,16.87
2023-04-29T23:08:50.635Z,15.87
2023-04-29T23:11:17.966Z,17.17
2023-04-29T23:13:45.236Z,16.80
2023-04-29T23:16:12.622Z,17.20
2023-04-29T23:18:40.686Z,16.53
2023-04-29T23:21:07.963Z,17.77
2023-04-29T23:23:35.264Z,17.30
2023-04-29T23:26:02.593Z,16.77
2023-04-29T23:28:29.911Z,13.53
2023-04-29T23:30:57.261Z,14.70
2023-04-29T23:33:24.575Z,16.03
2023-04-29T23:35:53.202Z,16.20
2023-04-29T23:38:20.708Z,16.30
2023-04-29T23:40:48.038Z,14.27
2023-04-29T23:43:15.329Z,15.57
2023-04-29T23:45:44.910Z,14.23
2023-04-29T23:48:12.352Z,15.57
2023-04-29T23:50:39.616Z,14.33
2023-04-29T23:53:07.847Z,13.90
2023-04-29T23:55:35.126Z,12.33
2023-04-29T23:58:02.517Z,11.67
